sensor_id;sensor_type;location;lat;lon;timestamp;pressure;altitude;pressure_sealevel;temperature;humidity
6833;BME280;3454;42.654;23.378;2023-05-24T00:01:37;64490.22;;;14.56;85.02
6833;BME280;3454;42.654;23.378;2023-05-24T00:04:02;64493.50;;;14.59;85.02
6833;BME280;3454;42.654;23.378;2023-05-24T00:06:28;64484.94;;;14.53;87.43
6833;BME280;3454;42.654;23.378;2023-05-24T00:08:54;64495.91;;;14.63;87.90
6833;BME280;3454;42.654;23.378;2023-05-24T00:11:19;64497.03;;;14.64;88.09
6833;BME280;3454;42.654;23.378;2023-05-24T00:13:46;64509.09;;;14.75;87.40
6833;BME280;3454;42.654;23.378;2023-05-24T00:16:12;64512.94;;;14.79;88.64
6833;BME280;3454;42.654;23.378;2023-05-24T00:18:37;64517.69;;;14.81;88.11
6833;BME280;3454;42.654;23.378;2023-05-24T00:21:09;64531.09;;;14.95;86.82
6833;BME280;3454;42.654;23.378;2023-05-24T00:23:35;64538.03;;;14.99;85.82
6833;BME280;3454;42.654;23.378;2023-05-24T00:26:02;64531.09;;;14.95;86.89
6833;BME280;3454;42.654;23.378;2023-05-24T00:28:27;64515.38;;;14.83;88.19
6833;BME280;3454;42.654;23.378;2023-05-24T00:30:52;64506.69;;;14.71;90.06
6833;BME280;3454;42.654;23.378;2023-05-24T00:33:18;64499.75;;;14.67;90.99
6833;BME280;3454;42.654;23.378;2023-05-24T00:35:44;64524.16;;;14.91;88.66
6833;BME280;3454;42.654;23.378;2023-05-24T00:38:16;64519.75;;;14.87;88.58
6833;BME280;3454;42.654;23.378;2023-05-24T00:40:41;64532.94;;;14.99;88.31
6833;BME280;3454;42.654;23.378;2023-05-24T00:43:07;64516.03;;;14.79;87.36
6833;BME280;3454;42.654;23.378;2023-05-24T00:45:32;64489.66;;;14.55;88.59
6833;BME280;3454;42.654;23.378;2023-05-24T00:47:58;64461.66;;;14.29;89.73
6833;BME280;3454;42.654;23.378;2023-05-24T00:50:24;64447.56;;;14.19;91.35
6833;BME280;3454;42.654;23.378;2023-05-24T00:52:50;64443.16;;;14.15;92.13
6833;BME280;3454;42.654;23.378;2023-05-24T00:55:15;64455.59;;;14.24;91.14
6833;BME280;3454;42.654;23.378;2023-05-24T00:57:41;64477.59;;;14.44;90.03
6833;BME280;3454;42.654;23.378;2023-05-24T01:00:07;64473.94;;;14.43;90.09
6833;BME280;3454;42.654;23.378;2023-05-24T01:02:33;64468.66;;;14.41;89.99
6833;BME280;3454;42.654;23.378;2023-05-24T01:04:59;64468.47;;;14.38;90.03
6833;BME280;3454;42.654;23.378;2023-05-24T01:10:44;64452.84;;;14.21;90.28
6833;BME280;3454;42.654;23.378;2023-05-24T01:13:20;64433.25;;;14.06;91.30
6833;BME280;3454;42.654;23.378;2023-05-24T01:16:14;64434.72;;;14.05;90.42
6833;BME280;3454;42.654;23.378;2023-05-24T01:18:50;64442.19;;;14.09;89.31
6833;BME280;3454;42.654;23.378;2023-05-24T01:29:27;64411.63;;;13.84;94.54
6833;BME280;3454;42.654;23.378;2023-05-24T01:31:53;64407.78;;;13.80;95.63
6833;BME280;3454;42.654;23.378;2023-05-24T01:34:19;64416.47;;;13.93;94.41
6833;BME280;3454;42.654;23.378;2023-05-24T01:36:44;64438.22;;;14.10;93.05
6833;BME280;3454;42.654;23.378;2023-05-24T01:39:10;64438.97;;;14.13;92.65
6833;BME280;3454;42.654;23.378;2023-05-24T01:41:58;64427.00;;;13.98;93.24
6833;BME280;3454;42.654;23.378;2023-05-24T01:44:39;64413.16;;;13.90;95.24
6833;BME280;3454;42.654;23.378;2023-05-24T01:47:24;64422.09;;;13.93;95.87
6833;BME280;3454;42.654;23.378;2023-05-24T01:50:15;64418.78;;;13.90;96.37
6833;BME280;3454;42.654;23.378;2023-05-24T01:52:43;64419.56;;;13.93;96.41
6833;BME280;3454;42.654;23.378;2023-05-24T01:55:12;64404.19;;;13.79;97.17
6833;BME280;3454;42.654;23.378;2023-05-24T01:57:42;64390.44;;;13.67;97.43
6833;BME280;3454;42.654;23.378;2023-05-24T02:00:09;64368.16;;;13.48;96.79
6833;BME280;3454;42.654;23.378;2023-05-24T02:02:36;64366.63;;;13.42;96.55
6833;BME280;3454;42.654;23.378;2023-05-24T02:05:02;64364.66;;;13.43;96.32
6833;BME280;3454;42.654;23.378;2023-05-24T02:07:28;64359.72;;;13.38;96.25
6833;BME280;3454;42.654;23.378;2023-05-24T02:09:53;64350.94;;;13.30;97.36
6833;BME280;3454;42.654;23.378;2023-05-24T02:12:19;64365.53;;;13.41;97.57
6833;BME280;3454;42.654;23.378;2023-05-24T02:14:44;64373.97;;;13.52;97.87
6833;BME280;3454;42.654;23.378;2023-05-24T02:17:10;64371.78;;;13.49;97.59
6833;BME280;3454;42.654;23.378;2023-05-24T02:19:35;64369.38;;;13.45;97.49
6833;BME280;3454;42.654;23.378;2023-05-24T02:22:01;64349.63;;;13.27;96.88
6833;BME280;3454;42.654;23.378;2023-05-24T02:24:28;64342.16;;;13.22;95.48
6833;BME280;3454;42.654;23.378;2023-05-24T02:26:53;64344.69;;;13.22;96.24
6833;BME280;3454;42.654;23.378;2023-05-24T02:29:21;64331.19;;;13.12;95.45
6833;BME280;3454;42.654;23.378;2023-05-24T02:31:46;64316.13;;;12.96;95.55
6833;BME280;3454;42.654;23.378;2023-05-24T02:34:14;64307.34;;;12.88;95.96
6833;BME280;3454;42.654;23.378;2023-05-24T02:36:40;64307.34;;;12.88;97.27
6833;BME280;3454;42.654;23.378;2023-05-24T02:39:06;64311.75;;;12.92;95.88
6833;BME280;3454;42.654;23.378;2023-05-24T02:41:38;64307.91;;;12.89;96.75
6833;BME280;3454;42.654;23.378;2023-05-24T02:44:04;64298.03;;;12.80;97.50
6833;BME280;3454;42.654;23.378;2023-05-24T02:46:29;64296.38;;;12.78;98.47
6833;BME280;3454;42.654;23.378;2023-05-24T02:48:55;64307.91;;;12.89;98.38
6833;BME280;3454;42.654;23.378;2023-05-24T02:51:20;64301.53;;;12.85;98.62
6833;BME280;3454;42.654;23.378;2023-05-24T02:53:45;64317.22;;;12.97;98.13
6833;BME280;3454;42.654;23.378;2023-05-24T02:56:11;64327.13;;;13.06;95.87
6833;BME280;3454;42.654;23.378;2023-05-24T02:58:38;64327.13;;;13.06;97.04
6833;BME280;3454;42.654;23.378;2023-05-24T03:01:06;64314.50;;;12.95;97.70
6833;BME280;3454;42.654;23.378;2023-05-24T03:03:32;64319.06;;;13.01;97.26
6833;BME280;3454;42.654;23.378;2023-05-24T03:05:57;64325.69;;;13.07;94.95
6833;BME280;3454;42.654;23.378;2023-05-24T03:08:22;64322.41;;;13.04;94.08
6833;BME280;3454;42.654;23.378;2023-05-24T03:10:48;64327.88;;;13.09;96.36
6833;BME280;3454;42.654;23.378;2023-05-24T03:13:13;64319.06;;;13.01;95.13
6833;BME280;3454;42.654;23.378;2023-05-24T03:15:38;64328.66;;;13.12;97.56
6833;BME280;3454;42.654;23.378;2023-05-24T03:18:04;64330.84;;;13.14;97.25
6833;BME280;3454;42.654;23.378;2023-05-24T03:20:30;64343.03;;;13.21;97.26
6833;BME280;3454;42.654;23.378;2023-05-24T03:22:56;64346.00;;;13.26;96.84
6833;BME280;3454;42.654;23.378;2023-05-24T03:25:21;64349.81;;;13.29;97.21
6833;BME280;3454;42.654;23.378;2023-05-24T03:27:46;64359.72;;;13.38;95.93
6833;BME280;3454;42.654;23.378;2023-05-24T03:30:12;64361.69;;;13.38;96.40
6833;BME280;3454;42.654;23.378;2023-05-24T03:32:38;64366.06;;;13.42;97.08
6833;BME280;3454;42.654;23.378;2023-05-24T03:35:03;64371.91;;;13.45;94.15
6833;BME280;3454;42.654;23.378;2023-05-24T03:37:29;64379.25;;;13.54;94.67
6833;BME280;3454;42.654;23.378;2023-05-24T03:39:54;64384.94;;;13.62;92.68
6833;BME280;3454;42.654;23.378;2023-05-24T03:42:19;64365.75;;;13.44;92.81
6833;BME280;3454;42.654;23.378;2023-05-24T03:44:46;64371.56;;;13.47;92.23
6833;BME280;3454;42.654;23.378;2023-05-24T03:47:11;64358.59;;;13.37;91.10
6833;BME280;3454;42.654;23.378;2023-05-24T03:49:37;64342.91;;;13.25;89.21
6833;BME280;3454;42.654;23.378;2023-05-24T03:52:02;64324.03;;;13.06;90.38
6833;BME280;3454;42.654;23.378;2023-05-24T03:54:28;64305.38;;;12.89;94.51
6833;BME280;3454;42.654;23.378;2023-05-24T03:56:53;64321.28;;;13.03;92.34
6833;BME280;3454;42.654;23.378;2023-05-24T03:59:18;64322.41;;;13.04;92.34
6833;BME280;3454;42.654;23.378;2023-05-24T04:01:44;64311.41;;;12.94;92.97
6833;BME280;3454;42.654;23.378;2023-05-24T04:04:09;64316.88;;;12.99;93.44
6833;BME280;3454;42.654;23.378;2023-05-24T04:06:35;64319.06;;;13.01;93.50
6833;BME280;3454;42.654;23.378;2023-05-24T04:09:02;64315.78;;;12.98;92.66
6833;BME280;3454;42.654;23.378;2023-05-24T04:11:29;64319.97;;;13.00;93.95
6833;BME280;3454;42.654;23.378;2023-05-24T04:13:56;64319.63;;;13.02;94.24
6833;BME280;3454;42.654;23.378;2023-05-24T04:16:25;64331.72;;;13.13;94.60
6833;BME280;3454;42.654;23.378;2023-05-24T04:18:54;64333.38;;;13.14;94.47
6833;BME280;3454;42.654;23.378;2023-05-24T04:21:19;64345.44;;;13.25;94.61
6833;BME280;3454;42.654;23.378;2023-05-24T04:23:45;64359.72;;;13.38;92.65
6833;BME280;3454;42.654;23.378;2023-05-24T04:26:11;64368.81;;;13.44;92.63
6833;BME280;3454;42.654;23.378;2023-05-24T04:28:37;64373.78;;;13.49;92.39
6833;BME280;3454;42.654;23.378;2023-05-24T04:31:04;64371.25;;;13.49;91.89
6833;BME280;3454;42.654;23.378;2023-05-24T04:33:31;64367.72;;;13.43;90.86
6833;BME280;3454;42.654;23.378;2023-05-24T04:35:57;64386.94;;;13.61;90.16
6833;BME280;3454;42.654;23.378;2023-05-24T04:38:25;64389.34;;;13.66;89.49
6833;BME280;3454;42.654;23.378;2023-05-24T04:40:54;64424.47;;;13.98;100.00
6833;BME280;3454;42.654;23.378;2023-05-24T04:43:20;64440.41;;;14.12;100.00
6833;BME280;3454;42.654;23.378;2023-05-24T04:45:46;64455.47;;;14.28;94.53
6833;BME280;3454;42.654;23.378;2023-05-24T04:48:11;64460.00;;;14.28;91.71
6833;BME280;3454;42.654;23.378;2023-05-24T04:50:37;64464.59;;;14.35;100.00
6833;BME280;3454;42.654;23.378;2023-05-24T04:53:02;64498.13;;;14.65;98.38
6833;BME280;3454;42.654;23.378;2023-05-24T04:55:28;64511.53;;;14.80;95.46
6833;BME280;3454;42.654;23.378;2023-05-24T04:57:54;64501.63;;;14.71;87.98
6833;BME280;3454;42.654;23.378;2023-05-24T05:00:19;64479.09;;;14.50;90.44
6833;BME280;3454;42.654;23.378;2023-05-24T05:02:45;64496.25;;;14.61;99.56
6833;BME280;3454;42.654;23.378;2023-05-24T05:05:30;64548.34;;;15.13;100.00
6833;BME280;3454;42.654;23.378;2023-05-24T05:07:55;64545.06;;;15.10;87.44
6833;BME280;3454;42.654;23.378;2023-05-24T05:10:21;64524.50;;;14.89;87.96
6833;BME280;3454;42.654;23.378;2023-05-24T05:12:47;64522.06;;;14.85;87.29
6833;BME280;3454;42.654;23.378;2023-05-24T05:15:13;64495.16;;;14.60;87.97
6833;BME280;3454;42.654;23.378;2023-05-24T05:17:39;64508.56;;;14.75;87.67
6833;BME280;3454;42.654;23.378;2023-05-24T05:20:05;64488.56;;;14.54;90.37
6833;BME280;3454;42.654;23.378;2023-05-24T05:22:31;64492.63;;;14.60;91.22
6833;BME280;3454;42.654;23.378;2023-05-24T05:24:56;64467.56;;;14.40;93.51
6833;BME280;3454;42.654;23.378;2023-05-24T05:27:22;64492.63;;;14.60;93.55
6833;BME280;3454;42.654;23.378;2023-05-24T05:29:47;64493.72;;;14.61;93.03
6833;BME280;3454;42.654;23.378;2023-05-24T05:32:13;64493.72;;;14.61;94.27
6833;BME280;3454;42.654;23.378;2023-05-24T05:34:39;64485.47;;;14.54;94.58
6833;BME280;3454;42.654;23.378;2023-05-24T05:37:04;64495.91;;;14.63;94.60
6833;BME280;3454;42.654;23.378;2023-05-24T05:39:30;64502.72;;;14.72;92.67
6833;BME280;3454;42.654;23.378;2023-05-24T05:41:56;64512.41;;;14.78;91.20
6833;BME280;3454;42.654;23.378;2023-05-24T05:44:21;64506.34;;;14.73;90.18
6833;BME280;3454;42.654;23.378;2023-05-24T05:46:47;64485.16;;;14.56;92.13
6833;BME280;3454;42.654;23.378;2023-05-24T05:49:13;64480.53;;;14.49;92.31
6833;BME280;3454;42.654;23.378;2023-05-24T05:51:40;64491.53;;;14.59;92.48
6833;BME280;3454;42.654;23.378;2023-05-24T05:54:05;64517.91;;;14.83;91.87
6833;BME280;3454;42.654;23.378;2023-05-24T05:56:33;64541.34;;;15.02;90.39
6833;BME280;3454;42.654;23.378;2023-05-24T05:59:05;64544.28;;;15.07;89.15
6833;BME280;3454;42.654;23.378;2023-05-24T06:01:30;64545.41;;;15.08;88.69
6833;BME280;3454;42.654;23.378;2023-05-24T06:03:56;64551.22;;;15.11;87.37
6833;BME280;3454;42.654;23.378;2023-05-24T06:06:21;64535.16;;;15.01;88.79
6833;BME280;3454;42.654;23.378;2023-05-24T06:08:47;64546.47;;;15.09;90.32
6833;BME280;3454;42.654;23.378;2023-05-24T06:11:13;64551.44;;;15.14;89.54
6833;BME280;3454;42.654;23.378;2023-05-24T06:13:38;64572.88;;;15.34;89.74
6833;BME280;3454;42.654;23.378;2023-05-24T06:16:04;64590.84;;;15.48;89.11
6833;BME280;3454;42.654;23.378;2023-05-24T06:18:32;64600.75;;;15.57;88.45
6833;BME280;3454;42.654;23.378;2023-05-24T06:20:58;64612.50;;;15.70;88.46
6833;BME280;3454;42.654;23.378;2023-05-24T06:23:24;64624.03;;;15.80;89.61
6833;BME280;3454;42.654;23.378;2023-05-24T06:25:55;64630.09;;;15.86;87.07
6833;BME280;3454;42.654;23.378;2023-05-24T06:28:21;64629.75;;;15.88;87.97
6833;BME280;3454;42.654;23.378;2023-05-24T06:30:46;64633.97;;;15.89;86.05
6833;BME280;3454;42.654;23.378;2023-05-24T06:33:12;64646.59;;;16.01;85.80
6833;BME280;3454;42.654;23.378;2023-05-24T06:35:38;64647.91;;;16.05;84.08
6833;BME280;3454;42.654;23.378;2023-05-24T06:38:03;64658.69;;;16.12;84.08
6833;BME280;3454;42.654;23.378;2023-05-24T06:40:28;64681.81;;;16.33;83.72
6833;BME280;3454;42.654;23.378;2023-05-24T06:42:54;64703.88;;;16.53;82.60
6833;BME280;3454;42.654;23.378;2023-05-24T06:45:20;64720.72;;;16.66;81.84
6833;BME280;3454;42.654;23.378;2023-05-24T06:47:45;64737.78;;;16.82;82.29
6833;BME280;3454;42.654;23.378;2023-05-24T06:50:11;64751.56;;;16.95;80.30
6833;BME280;3454;42.654;23.378;2023-05-24T06:52:36;64739.09;;;16.86;79.79
6833;BME280;3454;42.654;23.378;2023-05-24T06:55:02;64723.13;;;16.71;79.27
6833;BME280;3454;42.654;23.378;2023-05-24T06:57:27;64744.81;;;16.93;79.05
6833;BME280;3454;42.654;23.378;2023-05-24T06:59:53;64759.13;;;17.06;78.21
6833;BME280;3454;42.654;23.378;2023-05-24T07:02:18;64778.00;;;17.19;77.01
6833;BME280;3454;42.654;23.378;2023-05-24T07:04:48;64782.06;;;17.25;76.12
6833;BME280;3454;42.654;23.378;2023-05-24T07:07:13;64794.41;;;17.38;74.25
6833;BME280;3454;42.654;23.378;2023-05-24T07:09:39;64791.22;;;17.31;75.79
6833;BME280;3454;42.654;23.378;2023-05-24T07:12:06;64815.69;;;17.55;74.60
6833;BME280;3454;42.654;23.378;2023-05-24T07:14:31;64832.22;;;17.71;74.87
6833;BME280;3454;42.654;23.378;2023-05-24T07:16:57;64835.00;;;17.73;74.62
6833;BME280;3454;42.654;23.378;2023-05-24T07:19:24;64852.81;;;17.92;73.46
6833;BME280;3454;42.654;23.378;2023-05-24T07:21:54;64865.50;;;18.03;74.06
6833;BME280;3454;42.654;23.378;2023-05-24T07:24:20;64893.06;;;18.28;75.33
6833;BME280;3454;42.654;23.378;2023-05-24T07:26:48;64895.09;;;18.28;76.12
6833;BME280;3454;42.654;23.378;2023-05-24T07:29:14;64900.78;;;18.35;75.32
6833;BME280;3454;42.654;23.378;2023-05-24T07:31:39;64898.03;;;18.33;74.89
6833;BME280;3454;42.654;23.378;2023-05-24T07:34:05;64918.03;;;18.47;73.24
6833;BME280;3454;42.654;23.378;2023-05-24T07:36:30;64934.81;;;18.64;72.67
6833;BME280;3454;42.654;23.378;2023-05-24T07:38:57;64941.09;;;18.72;72.46
6833;BME280;3454;42.654;23.378;2023-05-24T07:41:25;64971.75;;;18.98;70.33
6833;BME280;3454;42.654;23.378;2023-05-24T07:43:52;64982.25;;;19.07;70.50
6833;BME280;3454;42.654;23.378;2023-05-24T07:46:17;64967.00;;;18.96;71.65
6833;BME280;3454;42.654;23.378;2023-05-24T07:48:43;64974.53;;;19.00;72.32
6833;BME280;3454;42.654;23.378;2023-05-24T07:51:08;64990.88;;;19.13;71.86
6833;BME280;3454;42.654;23.378;2023-05-24T07:53:34;64986.53;;;19.16;68.78
6833;BME280;3454;42.654;23.378;2023-05-24T07:56:01;64994.22;;;19.23;67.09
6833;BME280;3454;42.654;23.378;2023-05-24T07:58:27;65018.91;;;19.43;66.40
6833;BME280;3454;42.654;23.378;2023-05-24T08:00:53;65010.06;;;19.35;64.28
6833;BME280;3454;42.654;23.378;2023-05-24T08:03:19;65008.41;;;19.34;64.36
6833;BME280;3454;42.654;23.378;2023-05-24T08:05:44;65033.59;;;19.54;65.44
6833;BME280;3454;42.654;23.378;2023-05-24T08:08:10;65037.09;;;19.60;68.73
6833;BME280;3454;42.654;23.378;2023-05-24T08:10:35;65051.47;;;19.73;66.73
6833;BME280;3454;42.654;23.378;2023-05-24T08:13:01;65063.06;;;19.83;65.62
6833;BME280;3454;42.654;23.378;2023-05-24T08:15:27;65091.03;;;20.06;61.65
6833;BME280;3454;42.654;23.378;2023-05-24T08:17:53;65095.44;;;20.10;60.00
6833;BME280;3454;42.654;23.378;2023-05-24T08:20:18;65096.22;;;20.14;60.25
6833;BME280;3454;42.654;23.378;2023-05-24T08:22:44;65117.41;;;20.35;58.11
6833;BME280;3454;42.654;23.378;2023-05-24T08:25:12;65138.56;;;20.50;58.62
6833;BME280;3454;42.654;23.378;2023-05-24T08:27:38;65126.06;;;20.41;59.21
6833;BME280;3454;42.654;23.378;2023-05-24T08:30:05;65140.97;;;20.54;59.09
6833;BME280;3454;42.654;23.378;2023-05-24T08:32:31;65139.31;;;20.53;54.97
6833;BME280;3454;42.654;23.378;2023-05-24T08:34:56;65158.09;;;20.70;55.93
6833;BME280;3454;42.654;23.378;2023-05-24T08:37:22;65178.34;;;20.86;56.80
6833;BME280;3454;42.654;23.378;2023-05-24T08:39:48;65187.94;;;20.97;60.61
6833;BME280;3454;42.654;23.378;2023-05-24T08:42:14;65200.69;;;21.09;59.03
6833;BME280;3454;42.654;23.378;2023-05-24T08:44:46;65254.66;;;21.55;51.91
6833;BME280;3454;42.654;23.378;2023-05-24T08:47:13;65224.13;;;21.32;49.68
6833;BME280;3454;42.654;23.378;2023-05-24T08:49:40;65237.19;;;21.42;48.19
6833;BME280;3454;42.654;23.378;2023-05-24T08:52:06;65243.81;;;21.48;49.20
6833;BME280;3454;42.654;23.378;2023-05-24T08:54:35;65257.44;;;21.58;49.23
6833;BME280;3454;42.654;23.378;2023-05-24T08:57:01;65287.53;;;21.88;48.26
6833;BME280;3454;42.654;23.378;2023-05-24T08:59:26;65295.28;;;21.95;51.46
6833;BME280;3454;42.654;23.378;2023-05-24T09:01:53;65313.91;;;22.09;47.40
6833;BME280;3454;42.654;23.378;2023-05-24T09:04:20;65339.00;;;22.34;48.52
6833;BME280;3454;42.654;23.378;2023-05-24T09:06:47;65356.88;;;22.46;47.41
6833;BME280;3454;42.654;23.378;2023-05-24T09:09:17;65360.78;;;22.56;49.66
6833;BME280;3454;42.654;23.378;2023-05-24T09:11:44;65366.13;;;22.59;48.79
6833;BME280;3454;42.654;23.378;2023-05-24T09:14:12;65377.22;;;22.69;49.54
6833;BME280;3454;42.654;23.378;2023-05-24T09:16:38;65396.06;;;22.86;47.73
6833;BME280;3454;42.654;23.378;2023-05-24T09:19:04;65418.75;;;23.07;49.15
6833;BME280;3454;42.654;23.378;2023-05-24T09:21:30;65395.13;;;22.88;45.24
6833;BME280;3454;42.654;23.378;2023-05-24T09:23:57;65412.66;;;23.01;45.93
6833;BME280;3454;42.654;23.378;2023-05-24T09:26:22;65440.56;;;23.29;44.41
6833;BME280;3454;42.654;23.378;2023-05-24T09:28:53;65413.78;;;23.02;43.60
6833;BME280;3454;42.654;23.378;2023-05-24T09:31:19;65404.56;;;22.96;44.37
6833;BME280;3454;42.654;23.378;2023-05-24T09:33:55;65464.75;;;23.49;44.85
6833;BME280;3454;42.654;23.378;2023-05-24T09:36:21;65453.81;;;23.34;44.77
6833;BME280;3454;42.654;23.378;2023-05-24T09:38:46;65454.78;;;23.40;44.11
6833;BME280;3454;42.654;23.378;2023-05-24T09:41:12;65496.13;;;23.75;45.59
6833;BME280;3454;42.654;23.378;2023-05-24T09:43:48;65502.44;;;23.83;38.65
6833;BME280;3454;42.654;23.378;2023-05-24T09:46:18;65508.38;;;23.93;37.94
6833;BME280;3454;42.654;23.378;2023-05-24T09:48:59;65498.00;;;23.79;38.89
6833;BME280;3454;42.654;23.378;2023-05-24T09:51:28;65502.06;;;23.85;40.18
6833;BME280;3454;42.654;23.378;2023-05-24T09:54:00;65522.03;;;24.03;42.65
6833;BME280;3454;42.654;23.378;2023-05-24T09:56:25;65537.91;;;24.15;41.60
6833;BME280;3454;42.654;23.378;2023-05-24T09:58:51;65543.47;;;24.20;42.43
6833;BME280;3454;42.654;23.378;2023-05-24T10:01:21;65563.97;;;24.39;37.88
6833;BME280;3454;42.654;23.378;2023-05-24T10:03:57;65554.53;;;24.30;41.28
6833;BME280;3454;42.654;23.378;2023-05-24T10:06:24;65545.31;;;24.24;38.94
6833;BME280;3454;42.654;23.378;2023-05-24T10:08:50;65593.38;;;24.65;41.52
6833;BME280;3454;42.654;23.378;2023-05-24T10:11:17;65560.31;;;24.38;39.16
6833;BME280;3454;42.654;23.378;2023-05-24T10:13:42;65604.47;;;24.75;39.09
6833;BME280;3454;42.654;23.378;2023-05-24T10:16:08;65625.00;;;24.94;39.41
6833;BME280;3454;42.654;23.378;2023-05-24T10:18:34;65637.75;;;25.06;37.60
6833;BME280;3454;42.654;23.378;2023-05-24T10:21:00;65638.88;;;25.07;41.71
6833;BME280;3454;42.654;23.378;2023-05-24T10:23:30;65670.69;;;25.38;43.64
6833;BME280;3454;42.654;23.378;2023-05-24T10:26:04;65702.16;;;25.64;38.15
6833;BME280;3454;42.654;23.378;2023-05-24T10:28:31;65728.81;;;25.88;39.18
6833;BME280;3454;42.654;23.378;2023-05-24T10:33:27;65752.34;;;26.12;38.24
6833;BME280;3454;42.654;23.378;2023-05-24T10:35:54;65767.16;;;26.23;39.07
6833;BME280;3454;42.654;23.378;2023-05-24T10:38:21;65793.81;;;26.47;37.00
6833;BME280;3454;42.654;23.378;2023-05-24T10:40:48;65781.59;;;26.36;33.66
6833;BME280;3454;42.654;23.378;2023-05-24T10:43:16;65735.66;;;25.97;33.26
6833;BME280;3454;42.654;23.378;2023-05-24T10:45:41;65739.91;;;25.98;34.42
6833;BME280;3454;42.654;23.378;2023-05-24T10:50:38;65757.69;;;26.14;35.04
6833;BME280;3454;42.654;23.378;2023-05-24T11:01:13;65835.69;;;26.87;34.40
6833;BME280;3454;42.654;23.378;2023-05-24T11:03:42;65821.44;;;26.77;33.57
6833;BME280;3454;42.654;23.378;2023-05-24T11:06:08;65843.28;;;26.92;32.89
6833;BME280;3454;42.654;23.378;2023-05-24T11:08:34;65861.47;;;27.13;33.46
6833;BME280;3454;42.654;23.378;2023-05-24T11:13:31;65899.63;;;27.45;36.71
6833;BME280;3454;42.654;23.378;2023-05-24T11:15:58;65912.22;;;27.54;35.69
6833;BME280;3454;42.654;23.378;2023-05-24T11:18:24;65933.00;;;27.75;32.65
6833;BME280;3454;42.654;23.378;2023-05-24T11:20:50;65943.19;;;27.87;34.53
6833;BME280;3454;42.654;23.378;2023-05-24T11:23:16;65891.84;;;27.38;33.12
6833;BME280;3454;42.654;23.378;2023-05-24T11:25:42;65955.63;;;27.93;32.26
6833;BME280;3454;42.654;23.378;2023-05-24T11:28:10;65998.09;;;28.34;36.42
6833;BME280;3454;42.654;23.378;2023-05-24T11:30:44;66013.50;;;28.46;35.96
6833;BME280;3454;42.654;23.378;2023-05-24T11:33:17;66016.06;;;28.53;35.43
6833;BME280;3454;42.654;23.378;2023-05-24T11:35:47;66009.03;;;28.42;33.56
6833;BME280;3454;42.654;23.378;2023-05-24T11:38:14;65995.84;;;28.32;35.49
6833;BME280;3454;42.654;23.378;2023-05-24T11:40:41;65988.63;;;28.26;34.71
6833;BME280;3454;42.654;23.378;2023-05-24T11:43:20;65966.75;;;28.03;32.44
6833;BME280;3454;42.654;23.378;2023-05-24T11:45:50;65922.41;;;27.66;31.19
6833;BME280;3454;42.654;23.378;2023-05-24T11:48:18;65776.78;;;26.34;32.24
6833;BME280;3454;42.654;23.378;2023-05-24T11:50:45;65795.09;;;26.50;33.15
6833;BME280;3454;42.654;23.378;2023-05-24T11:53:14;65834.03;;;26.86;32.98
6833;BME280;3454;42.654;23.378;2023-05-24T11:55:40;65839.94;;;26.89;32.71
6833;BME280;3454;42.654;23.378;2023-05-24T12:00:41;65910.75;;;27.55;36.59
6833;BME280;3454;42.654;23.378;2023-05-24T12:03:08;65838.47;;;26.90;33.47
6833;BME280;3454;42.654;23.378;2023-05-24T12:05:34;65874.03;;;27.22;33.58
6833;BME280;3454;42.654;23.378;2023-05-24T12:08:11;65939.66;;;27.81;32.86
6833;BME280;3454;42.654;23.378;2023-05-24T12:10:38;65980.84;;;28.18;32.49
6833;BME280;3454;42.654;23.378;2023-05-24T12:13:05;65981.97;;;28.19;32.73
6833;BME280;3454;42.654;23.378;2023-05-24T12:15:31;65954.13;;;27.94;32.28
6833;BME280;3454;42.654;23.378;2023-05-24T12:17:58;65987.16;;;28.27;33.67
6833;BME280;3454;42.654;23.378;2023-05-24T12:20:26;65957.50;;;27.97;33.33
6833;BME280;3454;42.654;23.378;2023-05-24T12:22:53;65996.97;;;28.33;31.05
6833;BME280;3454;42.654;23.378;2023-05-24T12:25:20;66030.94;;;28.64;32.98
6833;BME280;3454;42.654;23.378;2023-05-24T12:27:53;66035.41;;;28.68;32.88
6833;BME280;3454;42.654;23.378;2023-05-24T12:30:24;66026.50;;;28.60;32.54
6833;BME280;3454;42.654;23.378;2023-05-24T12:32:50;66016.06;;;28.53;32.11
6833;BME280;3454;42.654;23.378;2023-05-24T12:35:20;66014.41;;;28.51;32.73
6833;BME280;3454;42.654;23.378;2023-05-24T12:37:46;66032.06;;;28.65;33.32
6833;BME280;3454;42.654;23.378;2023-05-24T12:40:17;65977.16;;;28.17;33.35
6833;BME280;3454;42.654;23.378;2023-05-24T12:42:52;65946.34;;;27.87;32.89
6833;BME280;3454;42.654;23.378;2023-05-24T12:45:22;65914.09;;;27.58;32.26
6833;BME280;3454;42.654;23.378;2023-05-24T12:47:50;65921.88;;;27.65;32.78
6833;BME280;3454;42.654;23.378;2023-05-24T12:50:20;65976.38;;;28.14;33.91
6833;BME280;3454;42.654;23.378;2023-05-24T12:52:46;66009.97;;;28.47;33.27
6833;BME280;3454;42.654;23.378;2023-05-24T12:55:13;66018.31;;;28.55;33.21
6833;BME280;3454;42.654;23.378;2023-05-24T12:57:42;66016.44;;;28.51;32.23
6833;BME280;3454;42.654;23.378;2023-05-24T13:00:09;66013.13;;;28.48;32.70
6833;BME280;3454;42.654;23.378;2023-05-24T13:02:39;65963.78;;;28.05;31.50
6833;BME280;3454;42.654;23.378;2023-05-24T13:05:06;65956.94;;;27.97;31.75
6833;BME280;3454;42.654;23.378;2023-05-24T13:07:32;65928.00;;;27.71;33.23
6833;BME280;3454;42.654;23.378;2023-05-24T13:09:58;65985.28;;;28.22;33.02
6833;BME280;3454;42.654;23.378;2023-05-24T13:12:25;65991.03;;;28.30;32.91
6833;BME280;3454;42.654;23.378;2023-05-24T13:14:52;66002.00;;;28.38;33.30
6833;BME280;3454;42.654;23.378;2023-05-24T13:17:18;66000.31;;;28.36;33.26
6833;BME280;3454;42.654;23.378;2023-05-24T13:19:44;65996.41;;;28.33;32.57
6833;BME280;3454;42.654;23.378;2023-05-24T13:22:18;65980.09;;;28.15;32.10
6833;BME280;3454;42.654;23.378;2023-05-24T13:24:44;65989.75;;;28.27;31.88
6833;BME280;3454;42.654;23.378;2023-05-24T13:27:09;66005.31;;;28.41;31.67
6833;BME280;3454;42.654;23.378;2023-05-24T13:29:35;65928.00;;;27.71;33.35
6833;BME280;3454;42.654;23.378;2023-05-24T13:32:00;65937.44;;;27.79;32.53
6833;BME280;3454;42.654;23.378;2023-05-24T13:34:26;65922.97;;;27.66;33.57
6833;BME280;3454;42.654;23.378;2023-05-24T13:36:53;65845.69;;;26.96;35.04
6833;BME280;3454;42.654;23.378;2023-05-24T13:39:21;65828.81;;;26.79;36.59